sensor_id;sensor_type;location;lat;lon;timestamp;P1;durP1;ratioP1;P2;durP2;ratioP2
43552;SDS011;29153;42.696;23.218;2022-12-18T00:00:49;8.45;;;4.03;;
43552;SDS011;29153;42.696;23.218;2022-12-18T00:03:19;8.18;;;3.98;;
43552;SDS011;29153;42.696;23.218;2022-12-18T00:05:52;8.13;;;4.10;;
43552;SDS011;29153;42.696;23.218;2022-12-18T00:08:23;7.40;;;4.03;;
43552;SDS011;29153;42.696;23.218;2022-12-18T00:10:57;7.53;;;3.62;;
43552;SDS011;29153;42.696;23.218;2022-12-18T00:13:29;8.98;;;3.50;;
43552;SDS011;29153;42.696;23.218;2022-12-18T00:16:10;6.85;;;3.80;;
43552;SDS011;29153;42.696;23.218;2022-12-18T00:18:42;7.85;;;4.08;;
43552;SDS011;29153;42.696;23.218;2022-12-18T00:21:15;7.97;;;3.80;;
43552;SDS011;29153;42.696;23.218;2022-12-18T00:23:53;7.60;;;3.52;;
43552;SDS011;29153;42.696;23.218;2022-12-18T00:26:24;8.43;;;4.60;;
43552;SDS011;29153;42.696;23.218;2022-12-18T00:28:58;7.60;;;4.12;;
43552;SDS011;29153;42.696;23.218;2022-12-18T00:31:30;8.58;;;3.95;;
43552;SDS011;29153;42.696;23.218;2022-12-18T00:34:08;8.93;;;4.17;;
43552;SDS011;29153;42.696;23.218;2022-12-18T00:36:36;7.17;;;3.80;;
43552;SDS011;29153;42.696;23.218;2022-12-18T00:39:13;6.72;;;3.85;;
43552;SDS011;29153;42.696;23.218;2022-12-18T00:41:52;9.48;;;3.98;;
43552;SDS011;29153;42.696;23.218;2022-12-18T00:44:43;8.55;;;4.20;;
43552;SDS011;29153;42.696;23.218;2022-12-18T00:47:17;7.75;;;4.33;;
43552;SDS011;29153;42.696;23.218;2022-12-18T00:49:45;7.05;;;3.67;;
43552;SDS011;29153;42.696;23.218;2022-12-18T00:52:15;7.83;;;3.42;;
43552;SDS011;29153;42.696;23.218;2022-12-18T00:54:51;8.35;;;4.05;;
43552;SDS011;29153;42.696;23.218;2022-12-18T00:57:24;8.58;;;3.98;;
43552;SDS011;29153;42.696;23.218;2022-12-18T00:59:58;7.78;;;4.37;;
43552;SDS011;29153;42.696;23.218;2022-12-18T01:02:24;7.35;;;3.55;;
43552;SDS011;29153;42.696;23.218;2022-12-18T01:04:59;7.55;;;4.17;;
43552;SDS011;29153;42.696;23.218;2022-12-18T01:07:27;7.35;;;3.72;;
43552;SDS011;29153;42.696;23.218;2022-12-18T01:09:55;7.00;;;3.58;;
43552;SDS011;29153;42.696;23.218;2022-12-18T01:12:33;8.43;;;4.30;;
43552;SDS011;29153;42.696;23.218;2022-12-18T01:15:02;8.10;;;4.10;;
43552;SDS011;29153;42.696;23.218;2022-12-18T01:17:33;9.83;;;3.95;;
43552;SDS011;29153;42.696;23.218;2022-12-18T01:20:06;8.45;;;4.03;;
43552;SDS011;29153;42.696;23.218;2022-12-18T01:22:44;9.53;;;4.37;;
43552;SDS011;29153;42.696;23.218;2022-12-18T01:25:20;11.55;;;4.92;;
43552;SDS011;29153;42.696;23.218;2022-12-18T01:27:59;11.43;;;4.85;;
43552;SDS011;29153;42.696;23.218;2022-12-18T01:30:31;9.78;;;5.45;;
43552;SDS011;29153;42.696;23.218;2022-12-18T01:35:48;11.57;;;5.55;;
43552;SDS011;29153;42.696;23.218;2022-12-18T01:38:22;10.15;;;4.97;;
43552;SDS011;29153;42.696;23.218;2022-12-18T01:40:57;10.80;;;5.15;;
43552;SDS011;29153;42.696;23.218;2022-12-18T01:43:46;9.60;;;5.12;;
43552;SDS011;29153;42.696;23.218;2022-12-18T01:46:30;9.88;;;4.37;;
43552;SDS011;29153;42.696;23.218;2022-12-18T01:49:00;11.00;;;5.62;;
43552;SDS011;29153;42.696;23.218;2022-12-18T01:51:33;8.53;;;5.03;;
43552;SDS011;29153;42.696;23.218;2022-12-18T01:54:12;10.30;;;5.08;;
43552;SDS011;29153;42.696;23.218;2022-12-18T01:56:55;9.30;;;4.75;;
43552;SDS011;29153;42.696;23.218;2022-12-18T01:59:23;10.03;;;5.10;;
43552;SDS011;29153;42.696;23.218;2022-12-18T02:02:01;7.65;;;4.33;;
43552;SDS011;29153;42.696;23.218;2022-12-18T02:04:35;9.83;;;5.15;;
43552;SDS011;29153;42.696;23.218;2022-12-18T02:07:30;11.60;;;5.35;;
43552;SDS011;29153;42.696;23.218;2022-12-18T02:10:29;8.65;;;4.37;;
43552;SDS011;29153;42.696;23.218;2022-12-18T02:13:18;10.95;;;4.95;;
43552;SDS011;29153;42.696;23.218;2022-12-18T02:18:40;11.30;;;5.75;;
43552;SDS011;29153;42.696;23.218;2022-12-18T02:21:12;10.68;;;5.95;;
43552;SDS011;29153;42.696;23.218;2022-12-18T02:23:56;10.13;;;4.87;;
43552;SDS011;29153;42.696;23.218;2022-12-18T02:26:44;10.98;;;4.62;;
43552;SDS011;29153;42.696;23.218;2022-12-18T02:29:18;9.98;;;5.22;;
43552;SDS011;29153;42.696;23.218;2022-12-18T02:31:51;12.35;;;4.95;;
43552;SDS011;29153;42.696;23.218;2022-12-18T02:34:24;8.10;;;4.55;;
43552;SDS011;29153;42.696;23.218;2022-12-18T02:36:56;9.13;;;4.67;;
43552;SDS011;29153;42.696;23.218;2022-12-18T02:39:30;8.58;;;3.83;;
43552;SDS011;29153;42.696;23.218;2022-12-18T02:42:09;8.48;;;3.87;;
43552;SDS011;29153;42.696;23.218;2022-12-18T02:44:48;7.08;;;3.62;;
43552;SDS011;29153;42.696;23.218;2022-12-18T02:47:20;9.80;;;3.98;;
43552;SDS011;29153;42.696;23.218;2022-12-18T02:58:41;8.10;;;4.00;;
43552;SDS011;29153;42.696;23.218;2022-12-18T03:04:19;9.38;;;4.08;;
43552;SDS011;29153;42.696;23.218;2022-12-18T03:06:51;9.18;;;4.25;;
43552;SDS011;29153;42.696;23.218;2022-12-18T03:09:29;8.63;;;3.80;;
43552;SDS011;29153;42.696;23.218;2022-12-18T03:12:02;9.88;;;4.42;;
43552;SDS011;29153;42.696;23.218;2022-12-18T03:18:22;10.25;;;4.83;;
43552;SDS011;29153;42.696;23.218;2022-12-18T03:20:28;9.30;;;4.50;;
43552;SDS011;29153;42.696;23.218;2022-12-18T03:23:04;8.90;;;4.65;;
43552;SDS011;29153;42.696;23.218;2022-12-18T03:25:43;9.60;;;5.05;;
43552;SDS011;29153;42.696;23.218;2022-12-18T03:28:15;10.95;;;4.72;;
43552;SDS011;29153;42.696;23.218;2022-12-18T03:30:49;10.82;;;4.55;;
43552;SDS011;29153;42.696;23.218;2022-12-18T03:33:31;8.10;;;4.50;;
43552;SDS011;29153;42.696;23.218;2022-12-18T03:36:06;8.85;;;4.42;;
43552;SDS011;29153;42.696;23.218;2022-12-18T03:38:36;8.18;;;4.10;;
43552;SDS011;29153;42.696;23.218;2022-12-18T03:41:19;7.92;;;3.95;;
43552;SDS011;29153;42.696;23.218;2022-12-18T03:52:36;9.13;;;3.80;;
43552;SDS011;29153;42.696;23.218;2022-12-18T03:55:09;9.38;;;4.12;;
43552;SDS011;29153;42.696;23.218;2022-12-18T03:57:45;9.40;;;4.00;;
43552;SDS011;29153;42.696;23.218;2022-12-18T04:00:16;10.13;;;4.15;;
43552;SDS011;29153;42.696;23.218;2022-12-18T04:02:51;9.93;;;4.10;;
43552;SDS011;29153;42.696;23.218;2022-12-18T04:05:23;8.73;;;4.30;;
43552;SDS011;29153;42.696;23.218;2022-12-18T04:08:07;10.50;;;4.62;;
43552;SDS011;29153;42.696;23.218;2022-12-18T04:10:38;9.48;;;4.65;;
43552;SDS011;29153;42.696;23.218;2022-12-18T04:13:05;9.10;;;4.00;;
43552;SDS011;29153;42.696;23.218;2022-12-18T04:15:37;10.13;;;4.72;;
43552;SDS011;29153;42.696;23.218;2022-12-18T04:18:12;12.43;;;5.28;;
43552;SDS011;29153;42.696;23.218;2022-12-18T04:20:49;11.45;;;4.95;;
43552;SDS011;29153;42.696;23.218;2022-12-18T04:23:23;12.80;;;5.28;;
43552;SDS011;29153;42.696;23.218;2022-12-18T04:26:05;10.45;;;5.25;;
43552;SDS011;29153;42.696;23.218;2022-12-18T04:28:39;11.70;;;5.30;;
43552;SDS011;29153;42.696;23.218;2022-12-18T04:31:04;12.10;;;5.50;;
43552;SDS011;29153;42.696;23.218;2022-12-18T04:33:46;10.82;;;4.85;;
43552;SDS011;29153;42.696;23.218;2022-12-18T04:36:23;12.90;;;5.25;;
43552;SDS011;29153;42.696;23.218;2022-12-18T04:38:59;14.45;;;5.50;;
43552;SDS011;29153;42.696;23.218;2022-12-18T04:41:32;12.93;;;5.35;;
43552;SDS011;29153;42.696;23.218;2022-12-18T04:44:02;12.55;;;5.15;;
43552;SDS011;29153;42.696;23.218;2022-12-18T04:46:48;13.10;;;5.70;;
43552;SDS011;29153;42.696;23.218;2022-12-18T04:49:30;12.65;;;4.92;;
43552;SDS011;29153;42.696;23.218;2022-12-18T04:52:08;11.70;;;5.85;;
43552;SDS011;29153;42.696;23.218;2022-12-18T04:54:44;11.95;;;5.37;;
43552;SDS011;29153;42.696;23.218;2022-12-18T04:57:20;10.38;;;5.22;;
43552;SDS011;29153;42.696;23.218;2022-12-18T04:59:51;12.47;;;5.92;;
43552;SDS011;29153;42.696;23.218;2022-12-18T05:02:27;12.33;;;5.42;;
43552;SDS011;29153;42.696;23.218;2022-12-18T05:05:00;12.45;;;6.08;;
43552;SDS011;29153;42.696;23.218;2022-12-18T05:07:37;12.55;;;6.00;;
43552;SDS011;29153;42.696;23.218;2022-12-18T05:10:13;13.95;;;6.08;;
43552;SDS011;29153;42.696;23.218;2022-12-18T05:12:39;14.40;;;6.65;;
43552;SDS011;29153;42.696;23.218;2022-12-18T05:15:12;13.78;;;6.20;;
43552;SDS011;29153;42.696;23.218;2022-12-18T05:23:14;14.43;;;6.25;;
43552;SDS011;29153;42.696;23.218;2022-12-18T05:25:59;12.75;;;5.60;;
43552;SDS011;29153;42.696;23.218;2022-12-18T05:28:35;14.05;;;6.25;;
43552;SDS011;29153;42.696;23.218;2022-12-18T05:31:13;13.80;;;6.08;;
43552;SDS011;29153;42.696;23.218;2022-12-18T05:36:30;13.53;;;6.60;;
43552;SDS011;29153;42.696;23.218;2022-12-18T05:39:01;12.68;;;6.00;;
43552;SDS011;29153;42.696;23.218;2022-12-18T05:41:39;14.55;;;7.10;;
43552;SDS011;29153;42.696;23.218;2022-12-18T05:44:12;16.62;;;7.65;;
43552;SDS011;29153;42.696;23.218;2022-12-18T05:46:49;17.27;;;7.62;;
43552;SDS011;29153;42.696;23.218;2022-12-18T05:49:20;16.57;;;6.70;;
43552;SDS011;29153;42.696;23.218;2022-12-18T05:51:53;15.32;;;6.97;;
43552;SDS011;29153;42.696;23.218;2022-12-18T05:54:32;16.77;;;7.50;;
43552;SDS011;29153;42.696;23.218;2022-12-18T05:57:12;20.45;;;8.88;;
43552;SDS011;29153;42.696;23.218;2022-12-18T05:59:43;17.40;;;7.28;;
43552;SDS011;29153;42.696;23.218;2022-12-18T06:02:22;16.40;;;7.67;;
43552;SDS011;29153;42.696;23.218;2022-12-18T06:04:57;15.13;;;7.05;;
43552;SDS011;29153;42.696;23.218;2022-12-18T06:07:30;12.93;;;6.37;;
43552;SDS011;29153;42.696;23.218;2022-12-18T06:10:06;15.45;;;6.22;;
43552;SDS011;29153;42.696;23.218;2022-12-18T06:12:41;15.43;;;6.55;;
43552;SDS011;29153;42.696;23.218;2022-12-18T06:15:25;13.50;;;6.00;;
43552;SDS011;29153;42.696;23.218;2022-12-18T06:17:56;16.25;;;7.20;;
43552;SDS011;29153;42.696;23.218;2022-12-18T06:23:06;21.60;;;7.62;;
43552;SDS011;29153;42.696;23.218;2022-12-18T06:25:40;15.40;;;7.22;;
43552;SDS011;29153;42.696;23.218;2022-12-18T06:30:47;15.50;;;6.62;;
43552;SDS011;29153;42.696;23.218;2022-12-18T06:33:20;16.27;;;7.50;;
43552;SDS011;29153;42.696;23.218;2022-12-18T06:35:59;17.45;;;7.62;;
43552;SDS011;29153;42.696;23.218;2022-12-18T06:38:43;16.25;;;7.22;;
43552;SDS011;29153;42.696;23.218;2022-12-18T06:41:20;15.75;;;7.80;;
43552;SDS011;29153;42.696;23.218;2022-12-18T06:43:52;15.00;;;6.95;;
43552;SDS011;29153;42.696;23.218;2022-12-18T06:46:28;14.25;;;7.22;;
43552;SDS011;29153;42.696;23.218;2022-12-18T06:48:58;16.20;;;7.05;;
43552;SDS011;29153;42.696;23.218;2022-12-18T06:51:35;17.48;;;7.58;;
43552;SDS011;29153;42.696;23.218;2022-12-18T06:54:07;17.27;;;7.25;;
43552;SDS011;29153;42.696;23.218;2022-12-18T06:56:44;18.42;;;7.97;;
43552;SDS011;29153;42.696;23.218;2022-12-18T06:59:09;21.07;;;7.83;;
43552;SDS011;29153;42.696;23.218;2022-12-18T07:01:46;18.05;;;7.65;;
43552;SDS011;29153;42.696;23.218;2022-12-18T07:05:02;12.78;;;6.05;;
43552;SDS011;29153;42.696;23.218;2022-12-18T07:07:34;16.45;;;7.37;;
43552;SDS011;29153;42.696;23.218;2022-12-18T07:10:08;16.97;;;6.97;;
43552;SDS011;29153;42.696;23.218;2022-12-18T07:12:50;17.20;;;6.67;;
43552;SDS011;29153;42.696;23.218;2022-12-18T07:15:29;15.63;;;6.15;;
43552;SDS011;29153;42.696;23.218;2022-12-18T07:18:01;19.55;;;8.73;;
43552;SDS011;29153;42.696;23.218;2022-12-18T07:20:37;20.92;;;9.85;;
43552;SDS011;29153;42.696;23.218;2022-12-18T07:23:13;18.65;;;8.80;;
43552;SDS011;29153;42.696;23.218;2022-12-18T07:25:45;16.67;;;7.37;;
43552;SDS011;29153;42.696;23.218;2022-12-18T07:28:33;17.00;;;7.25;;
43552;SDS011;29153;42.696;23.218;2022-12-18T07:31:04;19.00;;;8.03;;
43552;SDS011;29153;42.696;23.218;2022-12-18T07:33:36;19.52;;;7.85;;
43552;SDS011;29153;42.696;23.218;2022-12-18T07:36:24;19.73;;;8.83;;
43552;SDS011;29153;42.696;23.218;2022-12-18T07:38:57;19.17;;;8.55;;
43552;SDS011;29153;42.696;23.218;2022-12-18T07:41:35;18.25;;;8.25;;
43552;SDS011;29153;42.696;23.218;2022-12-18T07:44:11;20.32;;;8.33;;
43552;SDS011;29153;42.696;23.218;2022-12-18T07:46:38;20.45;;;8.65;;
43552;SDS011;29153;42.696;23.218;2022-12-18T07:49:08;22.73;;;9.73;;
43552;SDS011;29153;42.696;23.218;2022-12-18T07:51:42;20.62;;;9.90;;
43552;SDS011;29153;42.696;23.218;2022-12-18T07:54:13;18.77;;;8.60;;
43552;SDS011;29153;42.696;23.218;2022-12-18T07:56:53;17.95;;;8.00;;
43552;SDS011;29153;42.696;23.218;2022-12-18T07:59:30;18.17;;;9.33;;
43552;SDS011;29153;42.696;23.218;2022-12-18T08:02:04;20.17;;;8.80;;
43552;SDS011;29153;42.696;23.218;2022-12-18T08:04:32;19.52;;;8.80;;
43552;SDS011;29153;42.696;23.218;2022-12-18T08:07:02;20.45;;;8.98;;
43552;SDS011;29153;42.696;23.218;2022-12-18T08:09:31;22.85;;;9.60;;
43552;SDS011;29153;42.696;23.218;2022-12-18T08:12:12;22.02;;;9.58;;
43552;SDS011;29153;42.696;23.218;2022-12-18T08:14:49;23.20;;;10.60;;
43552;SDS011;29153;42.696;23.218;2022-12-18T08:17:30;19.05;;;8.38;;
43552;SDS011;29153;42.696;23.218;2022-12-18T08:20:06;24.45;;;10.10;;
43552;SDS011;29153;42.696;23.218;2022-12-18T08:22:39;24.32;;;10.23;;
43552;SDS011;29153;42.696;23.218;2022-12-18T08:25:13;22.93;;;9.33;;
43552;SDS011;29153;42.696;23.218;2022-12-18T08:27:48;21.87;;;9.68;;
43552;SDS011;29153;42.696;23.218;2022-12-18T08:30:20;21.27;;;9.28;;
43552;SDS011;29153;42.696;23.218;2022-12-18T08:38:16;23.07;;;9.60;;
43552;SDS011;29153;42.696;23.218;2022-12-18T08:40:47;21.35;;;8.98;;
43552;SDS011;29153;42.696;23.218;2022-12-18T08:43:24;21.65;;;8.90;;
43552;SDS011;29153;42.696;23.218;2022-12-18T08:46:21;23.02;;;10.38;;
43552;SDS011;29153;42.696;23.218;2022-12-18T08:48:57;24.55;;;9.65;;
43552;SDS011;29153;42.696;23.218;2022-12-18T08:51:26;19.67;;;8.58;;
43552;SDS011;29153;42.696;23.218;2022-12-18T08:54:07;22.45;;;8.75;;
43552;SDS011;29153;42.696;23.218;2022-12-18T08:56:30;19.73;;;8.38;;
43552;SDS011;29153;42.696;23.218;2022-12-18T08:59:03;19.42;;;8.65;;
43552;SDS011;29153;42.696;23.218;2022-12-18T09:01:36;24.35;;;8.95;;
43552;SDS011;29153;42.696;23.218;2022-12-18T09:06:43;18.57;;;7.75;;
43552;SDS011;29153;42.696;23.218;2022-12-18T09:09:14;18.95;;;8.23;;
43552;SDS011;29153;42.696;23.218;2022-12-18T09:11:43;20.62;;;8.25;;
43552;SDS011;29153;42.696;23.218;2022-12-18T09:14:13;16.95;;;7.50;;
43552;SDS011;29153;42.696;23.218;2022-12-18T09:19:30;16.50;;;7.17;;
43552;SDS011;29153;42.696;23.218;2022-12-18T09:22:03;22.27;;;7.97;;
43552;SDS011;29153;42.696;23.218;2022-12-18T09:24:48;23.75;;;9.35;;
43552;SDS011;29153;42.696;23.218;2022-12-18T09:27:11;52.85;;;20.43;;
43552;SDS011;29153;42.696;23.218;2022-12-18T09:29:43;21.27;;;8.80;;
43552;SDS011;29153;42.696;23.218;2022-12-18T09:32:21;21.07;;;10.08;;
43552;SDS011;29153;42.696;23.218;2022-12-18T09:34:54;18.62;;;8.03;;
43552;SDS011;29153;42.696;23.218;2022-12-18T09:37:29;19.57;;;7.25;;
43552;SDS011;29153;42.696;23.218;2022-12-18T09:40:01;16.60;;;7.20;;
43552;SDS011;29153;42.696;23.218;2022-12-18T09:42:43;19.92;;;8.28;;
43552;SDS011;29153;42.696;23.218;2022-12-18T09:45:22;17.40;;;7.40;;
43552;SDS011;29153;42.696;23.218;2022-12-18T09:48:05;23.40;;;10.43;;
43552;SDS011;29153;42.696;23.218;2022-12-18T09:50:38;20.77;;;8.85;;
43552;SDS011;29153;42.696;23.218;2022-12-18T09:53:26;19.48;;;8.75;;
43552;SDS011;29153;42.696;23.218;2022-12-18T09:55:53;17.57;;;7.78;;
43552;SDS011;29153;42.696;23.218;2022-12-18T10:01:23;16.93;;;7.80;;
43552;SDS011;29153;42.696;23.218;2022-12-18T10:03:58;22.32;;;9.00;;
43552;SDS011;29153;42.696;23.218;2022-12-18T10:06:46;17.50;;;7.97;;
43552;SDS011;29153;42.696;23.218;2022-12-18T10:09:32;18.87;;;8.38;;
43552;SDS011;29153;42.696;23.218;2022-12-18T10:12:43;21.45;;;9.33;;
43552;SDS011;29153;42.696;23.218;2022-12-18T10:27:46;18.20;;;8.28;;
43552;SDS011;29153;42.696;23.218;2022-12-18T10:30:12;19.65;;;8.53;;
43552;SDS011;29153;42.696;23.218;2022-12-18T10:32:44;17.20;;;7.65;;
43552;SDS011;29153;42.696;23.218;2022-12-18T10:35:24;17.50;;;7.28;;
43552;SDS011;29153;42.696;23.218;2022-12-18T10:43:35;18.35;;;7.90;;
43552;SDS011;29153;42.696;23.218;2022-12-18T10:46:24;16.10;;;6.87;;
43552;SDS011;29153;42.696;23.218;2022-12-18T10:49:00;18.87;;;8.05;;
43552;SDS011;29153;42.696;23.218;2022-12-18T10:51:36;24.30;;;11.43;;
43552;SDS011;29153;42.696;23.218;2022-12-18T11:01:01;18.50;;;8.83;;
43552;SDS011;29153;42.696;23.218;2022-12-18T11:03:02;16.00;;;7.58;;
43552;SDS011;29153;42.696;23.218;2022-12-18T11:05:32;16.00;;;7.33;;
43552;SDS011;29153;42.696;23.218;2022-12-18T11:08:03;16.23;;;7.08;;
43552;SDS011;29153;42.696;23.218;2022-12-18T11:10:39;20.08;;;7.08;;
43552;SDS011;29153;42.696;23.218;2022-12-18T11:13:12;20.48;;;7.28;;
43552;SDS011;29153;42.696;23.218;2022-12-18T11:15:55;17.23;;;6.65;;
43552;SDS011;29153;42.696;23.218;2022-12-18T11:18:28;17.25;;;7.72;;
43552;SDS011;29153;42.696;23.218;2022-12-18T11:21:10;16.55;;;6.58;;
43552;SDS011;29153;42.696;23.218;2022-12-18T11:23:54;15.50;;;5.97;;
43552;SDS011;29153;42.696;23.218;2022-12-18T11:26:38;15.78;;;7.08;;
43552;SDS011;29153;42.696;23.218;2022-12-18T11:29:10;17.73;;;7.50;;
43552;SDS011;29153;42.696;23.218;2022-12-18T11:31:43;15.65;;;7.55;;
43552;SDS011;29153;42.696;23.218;2022-12-18T11:34:12;18.90;;;8.08;;
43552;SDS011;29153;42.696;23.218;2022-12-18T11:36:52;18.30;;;6.83;;
43552;SDS011;29153;42.696;23.218;2022-12-18T11:42:37;21.10;;;8.65;;
43552;SDS011;29153;42.696;23.218;2022-12-18T11:45:26;17.27;;;7.53;;
43552;SDS011;29153;42.696;23.218;2022-12-18T11:48:05;16.42;;;7.10;;
43552;SDS011;29153;42.696;23.218;2022-12-18T11:50:54;18.40;;;8.15;;
43552;SDS011;29153;42.696;23.218;2022-12-18T11:53:27;17.67;;;6.80;;
43552;SDS011;29153;42.696;23.218;2022-12-18T12:01:51;19.55;;;9.83;;
43552;SDS011;29153;42.696;23.218;2022-12-18T12:07:31;15.18;;;6.50;;
43552;SDS011;29153;42.696;23.218;2022-12-18T12:10:36;15.55;;;7.30;;
43552;SDS011;29153;42.696;23.218;2022-12-18T12:16:09;18.23;;;6.97;;
43552;SDS011;29153;42.696;23.218;2022-12-18T12:21:42;18.23;;;8.25;;
43552;SDS011;29153;42.696;23.218;2022-12-18T12:30:18;18.55;;;7.87;;
43552;SDS011;29153;42.696;23.218;2022-12-18T12:36:02;19.95;;;8.15;;
43552;SDS011;29153;42.696;23.218;2022-12-18T12:38:37;19.05;;;7.85;;
43552;SDS011;29153;42.696;23.218;2022-12-18T12:41:17;20.10;;;8.05;;
43552;SDS011;29153;42.696;23.218;2022-12-18T12:44:13;16.87;;;7.67;;
43552;SDS011;29153;42.696;23.218;2022-12-18T12:46:55;18.02;;;7.97;;
43552;SDS011;29153;42.696;23.218;2022-12-18T12:49:27;21.65;;;8.95;;
43552;SDS011;29153;42.696;23.218;2022-12-18T12:52:12;17.55;;;7.50;;
43552;SDS011;29153;42.696;23.218;2022-12-18T12:54:49;17.57;;;7.62;;
43552;SDS011;29153;42.696;23.218;2022-12-18T13:00:58;16.87;;;7.28;;
43552;SDS011;29153;42.696;23.218;2022-12-18T13:08:28;20.95;;;8.53;;
43552;SDS011;29153;42.696;23.218;2022-12-18T13:11:03;21.40;;;7.95;;
43552;SDS011;29153;42.696;23.218;2022-12-18T13:16:31;17.55;;;7.83;;
43552;SDS011;29153;42.696;23.218;2022-12-18T13:19:18;22.48;;;9.55;;
43552;SDS011;29153;42.696;23.218;2022-12-18T13:21:37;19.00;;;7.97;;
43552;SDS011;29153;42.696;23.218;2022-12-18T13:26:59;17.50;;;7.95;;
43552;SDS011;29153;42.696;23.218;2022-12-18T13:32:26;18.87;;;7.95;;
43552;SDS011;29153;42.696;23.218;2022-12-18T13:37:55;19.92;;;8.13;;
43552;SDS011;29153;42.696;23.218;2022-12-18T13:48:57;16.30;;;6.87;;
43552;SDS011;29153;42.696;23.218;2022-12-18T13:51:31;16.42;;;7.80;;
43552;SDS011;29153;42.696;23.218;2022-12-18T13:54:13;15.45;;;7.25;;
43552;SDS011;29153;42.696;23.218;2022-12-18T13:56:43;20.10;;;8.20;;
43552;SDS011;29153;42.696;23.218;2022-12-18T13:59:13;14.35;;;6.62;;
43552;SDS011;29153;42.696;23.218;2022-12-18T14:01:44;15.83;;;7.03;;
43552;SDS011;29153;42.696;23.218;2022-12-18T14:07:07;18.65;;;7.20;;
43552;SDS011;29153;42.696;23.218;2022-12-18T14:09:52;17.05;;;6.47;;
43552;SDS011;29153;42.696;23.218;2022-12-18T14:12:25;16.67;;;6.37;;
43552;SDS011;29153;42.696;23.218;2022-12-18T14:20:57;29.67;;;12.98;;
43552;SDS011;29153;42.696;23.218;2022-12-18T14:29:10;32.78;;;16.73;;
43552;SDS011;29153;42.696;23.218;2022-12-18T14:34:50;31.25;;;15.40;;
43552;SDS011;29153;42.696;23.218;2022-12-18T14:37:23;25.35;;;10.98;;
43552;SDS011;29153;42.696;23.218;2022-12-18T14:40:00;23.02;;;10.95;;
43552;SDS011;29153;42.696;23.218;2022-12-18T14:42:30;39.67;;;19.55;;
43552;SDS011;29153;42.696;23.218;2022-12-18T14:48:12;27.50;;;12.28;;
43552;SDS011;29153;42.696;23.218;2022-12-18T14:50:41;28.77;;;13.80;;
43552;SDS011;29153;42.696;23.218;2022-12-18T14:53:21;20.57;;;8.48;;
43552;SDS011;29153;42.696;23.218;2022-12-18T14:55:57;14.60;;;7.35;;
43552;SDS011;29153;42.696;23.218;2022-12-18T14:58:25;13.88;;;6.15;;
43552;SDS011;29153;42.696;23.218;2022-12-18T15:00:57;14.95;;;6.92;;
43552;SDS011;29153;42.696;23.218;2022-12-18T15:03:31;18.42;;;7.72;;
43552;SDS011;29153;42.696;23.218;2022-12-18T15:06:14;19.90;;;9.00;;
43552;SDS011;29153;42.696;23.218;2022-12-18T15:08:39;22.15;;;9.48;;
43552;SDS011;29153;42.696;23.218;2022-12-18T15:11:02;18.27;;;7.85;;
43552;SDS011;29153;42.696;23.218;2022-12-18T15:13:31;17.07;;;6.85;;
43552;SDS011;29153;42.696;23.218;2022-12-18T15:16:00;17.65;;;7.65;;
43552;SDS011;29153;42.696;23.218;2022-12-18T15:18:31;17.05;;;7.50;;
43552;SDS011;29153;42.696;23.218;2022-12-18T15:21:00;18.32;;;7.72;;
43552;SDS011;29153;42.696;23.218;2022-12-18T15:23:36;16.25;;;7.53;;
43552;SDS011;29153;42.696;23.218;2022-12-18T15:26:13;18.67;;;8.15;;
43552;SDS011;29153;42.696;23.218;2022-12-18T15:28:53;32.28;;;12.03;;
43552;SDS011;29153;42.696;23.218;2022-12-18T15:31:31;20.43;;;7.67;;
43552;SDS011;29153;42.696;23.218;2022-12-18T15:36:42;34.40;;;13.13;;
43552;SDS011;29153;42.696;23.218;2022-12-18T15:39:11;26.00;;;11.38;;
43552;SDS011;29153;42.696;23.218;2022-12-18T15:41:39;25.50;;;12.93;;
43552;SDS011;29153;42.696;23.218;2022-12-18T15:44:23;19.37;;;8.63;;
43552;SDS011;29153;42.696;23.218;2022-12-18T15:46:51;20.95;;;9.30;;
43552;SDS011;29153;42.696;23.218;2022-12-18T15:49:22;17.98;;;8.28;;
43552;SDS011;29153;42.696;23.218;2022-12-18T15:51:51;17.67;;;8.18;;
43552;SDS011;29153;42.696;23.218;2022-12-18T15:54:20;19.17;;;9.25;;
43552;SDS011;29153;42.696;23.218;2022-12-18T15:56:49;19.90;;;7.75;;
43552;SDS011;29153;42.696;23.218;2022-12-18T15:59:35;16.90;;;6.72;;
43552;SDS011;29153;42.696;23.218;2022-12-18T16:02:07;17.62;;;7.47;;
43552;SDS011;29153;42.696;23.218;2022-12-18T16:04:33;21.60;;;7.95;;
43552;SDS011;29153;42.696;23.218;2022-12-18T16:07:02;17.42;;;7.40;;
43552;SDS011;29153;42.696;23.218;2022-12-18T16:09:30;21.35;;;8.15;;
43552;SDS011;29153;42.696;23.218;2022-12-18T16:11:59;18.27;;;7.33;;
43552;SDS011;29153;42.696;23.218;2022-12-18T16:14:29;19.23;;;7.40;;
43552;SDS011;29153;42.696;23.218;2022-12-18T16:16:57;16.70;;;6.92;;
43552;SDS011;29153;42.696;23.218;2022-12-18T16:19:28;18.80;;;9.08;;
43552;SDS011;29153;42.696;23.218;2022-12-18T16:21:56;18.87;;;7.87;;
43552;SDS011;29153;42.696;23.218;2022-12-18T16:24:26;19.35;;;8.05;;
43552;SDS011;29153;42.696;23.218;2022-12-18T16:26:55;20.68;;;8.53;;
43552;SDS011;29153;42.696;23.218;2022-12-18T16:29:25;19.82;;;6.87;;
43552;SDS011;29153;42.696;23.218;2022-12-18T16:31:59;17.73;;;8.45;;
43552;SDS011;29153;42.696;23.218;2022-12-18T16:34:25;18.52;;;7.83;;
43552;SDS011;29153;42.696;23.218;2022-12-18T16:36:54;19.20;;;8.43;;
43552;SDS011;29153;42.696;23.218;2022-12-18T16:39:24;18.75;;;7.87;;
43552;SDS011;29153;42.696;23.218;2022-12-18T16:41:52;20.52;;;9.35;;
43552;SDS011;29153;42.696;23.218;2022-12-18T16:44:21;21.95;;;8.60;;
43552;SDS011;29153;42.696;23.218;2022-12-18T16:46:49;22.85;;;9.85;;
43552;SDS011;29153;42.696;23.218;2022-12-18T16:49:17;19.12;;;7.87;;
43552;SDS011;29153;42.696;23.218;2022-12-18T16:51:45;16.97;;;6.87;;
43552;SDS011;29153;42.696;23.218;2022-12-18T16:54:13;20.52;;;7.45;;
43552;SDS011;29153;42.696;23.218;2022-12-18T16:56:41;19.57;;;7.58;;
43552;SDS011;29153;42.696;23.218;2022-12-18T16:59:09;18.92;;;8.55;;
43552;SDS011;29153;42.696;23.218;2022-12-18T17:01:37;18.32;;;8.50;;
43552;SDS011;29153;42.696;23.218;2022-12-18T17:04:06;17.92;;;7.60;;
43552;SDS011;29153;42.696;23.218;2022-12-18T17:06:35;15.05;;;6.55;;
43552;SDS011;29153;42.696;23.218;2022-12-18T17:09:09;17.12;;;7.30;;
43552;SDS011;29153;42.696;23.218;2022-12-18T17:11:41;19.73;;;8.00;;
43552;SDS011;29153;42.696;23.218;2022-12-18T17:14:10;19.35;;;8.18;;
43552;SDS011;29153;42.696;23.218;2022-12-18T17:16:42;20.27;;;8.70;;
43552;SDS011;29153;42.696;23.218;2022-12-18T17:21:38;17.70;;;7.50;;
43552;SDS011;29153;42.696;23.218;2022-12-18T17:24:06;19.37;;;7.92;;
43552;SDS011;29153;42.696;23.218;2022-12-18T17:26:34;18.67;;;7.87;;
43552;SDS011;29153;42.696;23.218;2022-12-18T17:29:02;18.90;;;8.03;;
43552;SDS011;29153;42.696;23.218;2022-12-18T17:31:30;16.37;;;7.67;;
43552;SDS011;29153;42.696;23.218;2022-12-18T17:33:58;23.55;;;8.50;;
43552;SDS011;29153;42.696;23.218;2022-12-18T17:36:27;19.70;;;9.60;;
43552;SDS011;29153;42.696;23.218;2022-12-18T17:38:59;22.75;;;9.60;;
43552;SDS011;29153;42.696;23.218;2022-12-18T17:41:28;20.72;;;8.33;;
43552;SDS011;29153;42.696;23.218;2022-12-18T17:46:25;19.95;;;8.45;;
43552;SDS011;29153;42.696;23.218;2022-12-18T17:48:55;20.32;;;8.43;;
43552;SDS011;29153;42.696;23.218;2022-12-18T17:51:24;20.15;;;8.65;;